createdAt,value
2024-02-19T00:00:26.936Z,101642.25
2024-02-19T00:01:50.475Z,101643.91
2024-02-19T00:03:13.600Z,101640.78
2024-02-19T00:04:38.654Z,101632.00
2024-02-19T00:06:01.337Z,101628.56
2024-02-19T00:07:24.018Z,101628.66
2024-02-19T00:08:47.150Z,101635.13
2024-02-19T00:10:10.489Z,101638.50
2024-02-19T00:11:33.561Z,101634.31
2024-02-19T00:12:57.054Z,101636.59
2024-02-19T00:14:20.382Z,101638.81
2024-02-19T00:15:44.030Z,101639.53
2024-02-19T00:17:06.550Z,101643.09
2024-02-19T00:18:28.860Z,101643.50
2024-02-19T00:19:50.053Z,101640.38
2024-02-19T00:21:21.445Z,101636.19
2024-02-19T00:22:42.523Z,101638.06
2024-02-19T00:24:05.701Z,101636.41
2024-02-19T00:25:27.996Z,101633.91
2024-02-19T00:26:52.984Z,101635.06
2024-02-19T00:28:15.813Z,101631.50
2024-02-19T00:29:39.314Z,101641.28
2024-02-19T00:31:01.337Z,101633.47
2024-02-19T00:32:23.273Z,101628.53
2024-02-19T00:33:46.573Z,101628.88
2024-02-19T00:35:08.943Z,101636.00
2024-02-19T00:36:30.559Z,101627.22
2024-02-19T00:37:55.153Z,101625.63
2024-02-19T00:39:20.609Z,101635.25
2024-02-19T00:40:43.470Z,101629.94
2024-02-19T00:42:04.976Z,101630.84
2024-02-19T00:43:28.142Z,101628.53
2024-02-19T00:44:50.880Z,101628.66
2024-02-19T00:46:13.172Z,101626.16
2024-02-19T00:47:35.128Z,101627.09
2024-02-19T00:48:57.557Z,101623.56
2024-02-19T00:50:20.695Z,101631.81
2024-02-19T00:51:44.450Z,101633.06
2024-02-19T00:53:06.850Z,101635.75
2024-02-19T00:54:29.437Z,101625.59
2024-02-19T00:55:59.214Z,101635.44
2024-02-19T00:57:29.085Z,101635.84
2024-02-19T00:58:52.288Z,101629.88
2024-02-19T01:00:15.464Z,101634.56
2024-02-19T01:01:36.927Z,101633.84
2024-02-19T01:03:00.170Z,101638.28
2024-02-19T01:04:23.076Z,101626.41
2024-02-19T01:05:45.189Z,101632.94
2024-02-19T01:07:07.962Z,101630.44
2024-02-19T01:08:59.702Z,101627.94
2024-02-19T01:10:30.141Z,101626.16
2024-02-19T01:12:56.989Z,101631.56
2024-02-19T01:15:09.381Z,101618.75
2024-02-19T01:16:50.180Z,101617.28
2024-02-19T01:18:16.510Z,101617.41
2024-02-19T01:23:10.561Z,101612.16
2024-02-19T01:24:33.210Z,101617.28
2024-02-19T01:25:56.663Z,101614.56
2024-02-19T01:27:19.080Z,101618.28
2024-02-19T01:28:42.309Z,101618.50
2024-02-19T01:30:05.848Z,101615.13
2024-02-19T01:31:38.706Z,101610.88
2024-02-19T01:33:12.452Z,101604.72
2024-02-19T01:34:34.717Z,101601.78
2024-02-19T01:35:57.831Z,101616.88
2024-02-19T01:37:29.605Z,101608.13
2024-02-19T01:38:56.313Z,101611.66
2024-02-19T01:40:20.945Z,101608.22
2024-02-19T01:41:43.914Z,101608.47
2024-02-19T01:43:15.174Z,101604.56
2024-02-19T01:44:41.156Z,101601.97
2024-02-19T01:46:04.744Z,101601.41
2024-02-19T01:47:27.846Z,101596.34
2024-02-19T01:48:50.524Z,101601.97
2024-02-19T01:50:28.235Z,101600.88
2024-02-19T01:51:57.515Z,101595.47
2024-02-19T01:53:35.024Z,101592.97
2024-02-19T01:55:35.552Z,101589.84
2024-02-19T01:56:58.984Z,101593.16
2024-02-19T01:58:21.184Z,101587.31
2024-02-19T01:59:54.016Z,101584.50
2024-02-19T02:01:21.233Z,101589.19
2024-02-19T02:02:43.270Z,101586.75
2024-02-19T02:04:08.354Z,101585.09
2024-02-19T02:05:31.552Z,101580.81
2024-02-19T02:06:55.014Z,101576.88
2024-02-19T02:08:18.310Z,101578.94
2024-02-19T02:09:41.750Z,101581.75
2024-02-19T02:11:05.844Z,101580.81
2024-02-19T02:12:29.145Z,101577.28
2024-02-19T02:15:55.503Z,101571.91
2024-02-19T02:17:16.640Z,101572.84
2024-02-19T02:18:40.044Z,101571.38
2024-02-19T02:20:05.766Z,101563.53
2024-02-19T02:21:52.228Z,101561.13
2024-02-19T02:24:07.382Z,101556.97
2024-02-19T02:26:45.641Z,101563.19
2024-02-19T02:28:23.921Z,101569.34
2024-02-19T02:29:49.416Z,101558.38
2024-02-19T02:31:18.153Z,101555.88
2024-02-19T02:32:41.262Z,101560.69
2024-02-19T02:34:38.499Z,101558.91
2024-02-19T02:36:11.478Z,101555.69
2024-02-19T02:37:52.751Z,101557.91
2024-02-19T02:39:18.007Z,101557.78
2024-02-19T02:41:22.279Z,101555.88
2024-02-19T02:42:45.769Z,101547.41
2024-02-19T02:44:09.429Z,101551.88
2024-02-19T02:46:29.970Z,101552.81
2024-02-19T02:47:50.511Z,101546.84
2024-02-19T02:49:13.260Z,101555.88
2024-02-19T02:50:38.175Z,101550.00
2024-02-19T02:52:12.101Z,101540.63
2024-02-19T02:53:41.152Z,101545.94
2024-02-19T02:55:17.495Z,101543.78
2024-02-19T02:57:03.297Z,101545.56
2024-02-19T02:58:28.231Z,101543.44
2024-02-19T02:59:55.571Z,101545.69
2024-02-19T03:02:17.795Z,101543.34
2024-02-19T03:03:40.562Z,101546.06
2024-02-19T03:05:05.534Z,101547.19
2024-02-19T03:06:27.483Z,101545.31
2024-02-19T03:08:04.273Z,101545.41
2024-02-19T03:09:33.114Z,101549.88
2024-02-19T03:11:13.814Z,101551.00
2024-02-19T03:12:46.222Z,101550.44
2024-02-19T03:14:12.197Z,101547.84
2024-02-19T03:15:34.770Z,101552.00
2024-02-19T03:17:12.419Z,101550.50
2024-02-19T03:18:44.994Z,101550.88
2024-02-19T03:20:18.635Z,101548.00
2024-02-19T03:22:40.763Z,101556.75
2024-02-19T03:24:02.221Z,101556.53
2024-02-19T03:26:01.745Z,101546.13
2024-02-19T03:30:42.278Z,101543.69
2024-02-19T03:32:06.638Z,101546.47
2024-02-19T03:36:14.585Z,101548.72
2024-02-19T03:37:48.699Z,101546.13
2024-02-19T03:39:46.460Z,101550.59
2024-02-19T03:41:16.495Z,101545.94
2024-02-19T03:43:01.376Z,101547.06
2024-02-19T03:46:58.167Z,101544.53
2024-02-19T03:48:46.497Z,101550.59
2024-02-19T03:50:34.352Z,101544.44
2024-02-19T03:52:00.778Z,101540.94
2024-02-19T03:53:45.946Z,101532.03
2024-02-19T03:55:16.320Z,101541.44
2024-02-19T03:57:12.272Z,101535.84
2024-02-19T03:58:39.850Z,101535.66
2024-02-19T04:00:06.431Z,101529.81
2024-02-19T04:01:35.525Z,101524.84
2024-02-19T04:03:01.926Z,101529.66
2024-02-19T04:04:23.833Z,101531.53
2024-02-19T04:05:46.380Z,101531.34
2024-02-19T04:07:08.577Z,101522.81
2024-02-19T04:08:46.703Z,101522.81
2024-02-19T04:10:19.620Z,101528.25
2024-02-19T04:11:41.891Z,101518.44
2024-02-19T04:13:47.369Z,101524.41
2024-02-19T04:15:11.330Z,101516.19
2024-02-19T04:16:37.935Z,101522.66
2024-02-19T04:18:01.878Z,101524.53
2024-02-19T04:19:27.730Z,101512.34
2024-02-19T04:20:50.358Z,101519.88
2024-02-19T04:22:12.973Z,101517.78
2024-02-19T04:23:34.898Z,101520.41
2024-02-19T04:24:57.229Z,101522.47
2024-02-19T04:26:27.198Z,101518.91
2024-02-19T04:27:51.372Z,101521.34
2024-02-19T04:29:14.084Z,101515.19
2024-02-19T04:32:22.672Z,101522.25
2024-02-19T04:34:12.345Z,101511.22
2024-02-19T04:35:51.008Z,101520.44
2024-02-19T04:37:35.674Z,101515.84
2024-02-19T04:38:57.084Z,101518.56
2024-02-19T04:40:35.947Z,101517.41
2024-02-19T04:42:41.222Z,101517.72
2024-02-19T04:47:18.536Z,101521.25
2024-02-19T04:49:04.703Z,101519.41
2024-02-19T04:50:56.174Z,101512.94
2024-02-19T04:52:24.095Z,101512.94
2024-02-19T04:53:49.500Z,101518.78
2024-02-19T04:55:14.967Z,101510.84
2024-02-19T04:56:46.441Z,101513.16
2024-02-19T04:58:10.988Z,101518.56
2024-02-19T05:00:05.563Z,101505.41
2024-02-19T05:01:59.343Z,101510.53
2024-02-19T05:03:33.789Z,101508.03
2024-02-19T05:05:02.475Z,101507.72
2024-02-19T05:06:36.307Z,101506.69
2024-02-19T05:08:38.488Z,101500.00
2024-02-19T05:11:03.470Z,101500.81
2024-02-19T05:12:26.027Z,101503.78
2024-02-19T05:13:49.260Z,101502.50
2024-02-19T05:15:26.102Z,101501.47
2024-02-19T05:17:26.704Z,101492.50
2024-02-19T05:18:49.201Z,101496.03
2024-02-19T05:20:17.313Z,101493.97
2024-02-19T05:22:02.660Z,101494.97
2024-02-19T05:23:31.394Z,101495.81
2024-02-19T05:25:00.776Z,101499.38
2024-02-19T05:26:36.297Z,101495.50
2024-02-19T05:28:24.828Z,101496.22
2024-02-19T05:30:22.769Z,101490.38
2024-02-19T05:31:57.955Z,101490.69
2024-02-19T05:33:43.536Z,101490.81
2024-02-19T05:35:47.505Z,101485.78
2024-02-19T05:37:36.244Z,101485.75
2024-02-19T05:39:19.392Z,101492.00
2024-02-19T05:40:42.184Z,101488.63
2024-02-19T05:42:04.959Z,101487.84
2024-02-19T05:44:16.467Z,101475.41
2024-02-19T05:46:11.305Z,101476.88
2024-02-19T05:47:48.681Z,101481.72
2024-02-19T05:54:32.515Z,101476.97
2024-02-19T05:55:54.510Z,101471.75
2024-02-19T05:57:20.421Z,101464.75
2024-02-19T06:00:54.898Z,101468.38
2024-02-19T06:02:23.886Z,101463.25
2024-02-19T06:03:46.655Z,101468.00
2024-02-19T06:05:09.962Z,101466.22
2024-02-19T06:06:34.870Z,101471.19
2024-02-19T06:07:58.677Z,101469.53
2024-02-19T06:09:23.159Z,101465.72
2024-02-19T06:10:59.597Z,101465.75
2024-02-19T06:12:22.977Z,101459.06
2024-02-19T06:13:50.254Z,101473.09
2024-02-19T06:15:13.207Z,101468.94
2024-02-19T06:16:40.893Z,101469.44
2024-02-19T06:18:41.492Z,101474.31
2024-02-19T06:20:06.039Z,101474.47
2024-02-19T06:22:14.665Z,101461.28
2024-02-19T06:28:11.521Z,101466.97
2024-02-19T06:29:57.744Z,101466.03
2024-02-19T06:31:19.809Z,101467.56
2024-02-19T06:33:19.812Z,101469.63
2024-02-19T06:34:45.139Z,101469.25
2024-02-19T06:36:14.404Z,101474.38
2024-02-19T06:38:38.851Z,101477.41
2024-02-19T06:40:09.081Z,101477.09
2024-02-19T06:41:33.523Z,101474.72
2024-02-19T06:42:56.923Z,101474.94
2024-02-19T06:44:24.049Z,101469.06
2024-02-19T06:45:47.636Z,101478.50
2024-02-19T06:47:10.852Z,101485.06
2024-02-19T06:48:32.780Z,101475.78
2024-02-19T06:50:38.291Z,101478.19
2024-02-19T06:52:09.741Z,101474.81
2024-02-19T06:53:34.086Z,101472.69
2024-02-19T06:54:56.905Z,101477.34
2024-02-19T06:56:19.886Z,101475.06
2024-02-19T06:57:42.960Z,101479.13
2024-02-19T06:59:05.507Z,101478.91
2024-02-19T07:00:29.109Z,101480.50
2024-02-19T07:01:52.182Z,101474.66
2024-02-19T07:03:15.357Z,101478.13
2024-02-19T07:04:39.113Z,101470.28
2024-02-19T07:06:02.601Z,101466.72
2024-02-19T07:07:26.285Z,101471.34
2024-02-19T07:08:48.404Z,101466.72
2024-02-19T07:10:12.182Z,101465.19
2024-02-19T07:11:39.414Z,101467.19
2024-02-19T07:13:00.496Z,101461.25
2024-02-19T07:14:22.405Z,101460.66
2024-02-19T07:15:46.100Z,101453.88
2024-02-19T07:17:08.922Z,101451.22
2024-02-19T07:18:33.239Z,101456.22
2024-02-19T07:19:56.157Z,101448.81
2024-02-19T07:21:21.823Z,101455.00
2024-02-19T07:22:47.301Z,101454.53
2024-02-19T07:24:10.543Z,101440.81
2024-02-19T07:25:33.553Z,101439.09
2024-02-19T07:26:56.132Z,101434.59
2024-02-19T07:28:21.086Z,101428.88
2024-02-19T07:29:59.574Z,101427.91
2024-02-19T07:31:49.140Z,101429.66
2024-02-19T07:33:28.295Z,101429.16
2024-02-19T07:35:14.201Z,101423.69
2024-02-19T07:36:56.499Z,101418.81
2024-02-19T07:38:21.752Z,101428.78
2024-02-19T07:39:50.901Z,101428.97
2024-02-19T07:41:23.496Z,101431.28
2024-02-19T07:42:47.799Z,101429.84
2024-02-19T07:44:29.605Z,101440.09
2024-02-19T07:45:54.940Z,101440.78
2024-02-19T07:47:25.073Z,101437.59
2024-02-19T07:49:09.728Z,101442.09
2024-02-19T07:50:46.795Z,101444.31
2024-02-19T07:52:17.955Z,101434.91
2024-02-19T07:54:07.596Z,101435.00
2024-02-19T07:56:20.333Z,101436.25
2024-02-19T07:57:56.536Z,101437.41
2024-02-19T07:59:47.658Z,101440.84
2024-02-19T08:01:34.155Z,101441.91
2024-02-19T08:03:40.822Z,101441.22
2024-02-19T08:05:55.950Z,101444.66
2024-02-19T08:07:21.810Z,101450.22
2024-02-19T08:08:56.792Z,101442.25
2024-02-19T08:15:15.033Z,101433.53
2024-02-19T08:16:47.550Z,101428.91
2024-02-19T08:19:26.896Z,101427.72
2024-02-19T08:21:07.945Z,101431.38
2024-02-19T08:25:00.961Z,101425.72
2024-02-19T08:26:51.592Z,101420.34
2024-02-19T08:28:41.602Z,101422.97
2024-02-19T08:30:22.504Z,101420.91
2024-02-19T08:31:54.695Z,101419.66
2024-02-19T08:33:47.606Z,101422.97
2024-02-19T08:35:11.246Z,101417.56
2024-02-19T08:36:36.209Z,101417.56
2024-02-19T08:38:01.486Z,101422.09
2024-02-19T08:39:24.213Z,101422.66
2024-02-19T08:40:50.729Z,101423.75
2024-02-19T08:43:00.650Z,101406.13
2024-02-19T08:44:29.241Z,101406.13
2024-02-19T08:46:00.582Z,101409.91
2024-02-19T08:47:25.074Z,101416.34
2024-02-19T08:48:48.671Z,101409.53
2024-02-19T08:50:53.935Z,101403.66
2024-02-19T08:52:16.518Z,101399.25
2024-02-19T08:53:39.820Z,101401.41
2024-02-19T08:55:02.386Z,101401.97
2024-02-19T08:56:25.368Z,101395.59
2024-02-19T08:57:48.022Z,101396.91
2024-02-19T08:59:13.853Z,101397.09
2024-02-19T09:00:38.151Z,101389.81
2024-02-19T09:02:00.758Z,101398.41
2024-02-19T09:03:22.145Z,101400.59
2024-02-19T09:04:49.548Z,101393.66
2024-02-19T09:06:12.408Z,101397.69
2024-02-19T09:07:36.792Z,101396.63
2024-02-19T09:09:01.565Z,101395.59
2024-02-19T09:10:24.428Z,101393.56
2024-02-19T09:11:47.925Z,101392.41
2024-02-19T09:13:11.881Z,101387.97
2024-02-19T09:14:34.199Z,101388.94
2024-02-19T09:15:57.175Z,101387.47
2024-02-19T09:17:20.440Z,101386.94
2024-02-19T09:18:49.709Z,101390.50
2024-02-19T09:20:13.037Z,101395.28
2024-02-19T09:21:35.254Z,101397.72
2024-02-19T09:22:58.025Z,101395.53
2024-02-19T09:24:20.943Z,101393.03
2024-02-19T09:25:47.747Z,101389.25
2024-02-19T09:27:09.496Z,101401.50
2024-02-19T09:28:33.068Z,101386.19
2024-02-19T09:31:07.915Z,101389.56
2024-02-19T09:32:34.283Z,101384.59
2024-02-19T09:33:59.153Z,101381.03
2024-02-19T09:36:52.865Z,101381.25
2024-02-19T09:38:23.856Z,101380.19
2024-02-19T09:40:17.630Z,101374.09
2024-02-19T09:42:37.073Z,101375.31
2024-02-19T09:44:02.587Z,101370.56
2024-02-19T09:45:27.736Z,101369.94
2024-02-19T09:46:53.274Z,101374.56
2024-02-19T09:48:21.429Z,101372.81
2024-02-19T09:49:44.616Z,101363.66
2024-02-19T09:51:37.184Z,101357.88
2024-02-19T09:53:12.902Z,101362.84
2024-02-19T09:54:35.729Z,101367.66
2024-02-19T09:55:59.990Z,101363.59
2024-02-19T09:57:24.750Z,101361.16
2024-02-19T09:58:48.810Z,101364.84
2024-02-19T10:00:13.097Z,101369.78
2024-02-19T10:01:35.784Z,101365.13
2024-02-19T10:02:59.333Z,101361.09
2024-02-19T10:04:23.913Z,101358.81
2024-02-19T10:05:49.098Z,101370.31
2024-02-19T10:07:14.849Z,101361.38
2024-02-19T10:08:38.225Z,101357.09
2024-02-19T10:10:05.551Z,101371.66
2024-02-19T10:11:35.340Z,101363.88
2024-02-19T10:12:57.994Z,101364.72
2024-02-19T10:14:20.044Z,101360.13
2024-02-19T10:15:41.809Z,101365.13
2024-02-19T10:17:05.108Z,101363.31
2024-02-19T10:18:28.335Z,101370.41
2024-02-19T10:20:07.558Z,101362.47
2024-02-19T10:21:31.899Z,101369.22
2024-02-19T10:22:55.229Z,101355.84
2024-02-19T10:24:20.990Z,101361.41
2024-02-19T10:25:43.739Z,101358.72
2024-02-19T10:27:06.916Z,101359.41
2024-02-19T10:28:33.556Z,101353.16
2024-02-19T10:29:56.175Z,101356.84
2024-02-19T10:31:18.322Z,101353.88
2024-02-19T10:32:43.215Z,101356.50
2024-02-19T10:34:06.765Z,101346.91
2024-02-19T10:35:30.916Z,101357.44
2024-02-19T10:36:53.061Z,101344.44
2024-02-19T10:38:18.318Z,101345.13
2024-02-19T10:39:41.497Z,101341.16
2024-02-19T10:41:02.296Z,101336.16
2024-02-19T10:42:25.532Z,101341.28
2024-02-19T10:43:47.811Z,101333.03
2024-02-19T10:45:12.922Z,101336.19
2024-02-19T10:46:36.681Z,101331.56
2024-02-19T10:48:01.868Z,101327.06
2024-02-19T10:49:26.334Z,101333.69
2024-02-19T10:50:52.341Z,101326.38
2024-02-19T10:52:14.065Z,101326.50
2024-02-19T10:53:37.446Z,101333.56
2024-02-19T10:55:09.683Z,101333.97
2024-02-19T10:56:40.469Z,101325.88
2024-02-19T10:58:05.325Z,101323.03
2024-02-19T10:59:31.335Z,101323.00
2024-02-19T11:00:56.375Z,101326.00
2024-02-19T11:02:22.859Z,101314.75
2024-02-19T11:03:48.006Z,101305.19
2024-02-19T11:05:13.609Z,101314.09
2024-02-19T11:06:42.115Z,101311.78
2024-02-19T11:08:04.791Z,101307.41
2024-02-19T11:09:37.503Z,101306.41
2024-02-19T11:11:00.686Z,101303.75
2024-02-19T11:12:24.422Z,101301.97
2024-02-19T11:13:49.535Z,101299.47
2024-02-19T11:15:19.156Z,101299.16
2024-02-19T11:17:01.873Z,101288.94
2024-02-19T11:18:33.661Z,101303.63
2024-02-19T11:19:56.533Z,101291.84
2024-02-19T11:21:22.139Z,101289.06
2024-02-19T11:22:45.155Z,101294.34
2024-02-19T11:24:12.572Z,101290.94
2024-02-19T11:25:46.535Z,101283.50
2024-02-19T11:27:10.588Z,101283.38
2024-02-19T11:28:38.554Z,101283.03
2024-02-19T11:30:03.036Z,101287.50
2024-02-19T11:31:36.974Z,101284.88
2024-02-19T11:33:14.279Z,101281.56
2024-02-19T11:34:37.593Z,101280.03
2024-02-19T11:36:04.078Z,101276.75
2024-02-19T11:37:29.051Z,101281.69
2024-02-19T11:38:52.439Z,101273.59
2024-02-19T11:40:19.233Z,101273.91
2024-02-19T11:42:05.927Z,101271.13
2024-02-19T11:43:31.459Z,101268.47
2024-02-19T11:44:58.046Z,101269.97
2024-02-19T11:46:22.673Z,101268.63
2024-02-19T11:47:46.046Z,101270.06
2024-02-19T11:49:10.342Z,101274.06
2024-02-19T11:50:33.488Z,101265.78
2024-02-19T11:52:04.390Z,101260.16
2024-02-19T11:53:31.664Z,101260.03
2024-02-19T11:55:03.129Z,101255.88
2024-02-19T11:56:25.680Z,101260.03
2024-02-19T11:57:51.313Z,101244.38
2024-02-19T11:59:16.249Z,101244.03
2024-02-19T12:00:41.283Z,101245.66
2024-02-19T12:02:07.411Z,101250.09
2024-02-19T12:03:31.744Z,101247.28
2024-02-19T12:04:55.304Z,101240.97
2024-02-19T12:06:18.697Z,101241.63
2024-02-19T12:07:41.244Z,101240.97
2024-02-19T12:09:04.108Z,101240.84
2024-02-19T12:10:29.723Z,101236.69
2024-02-19T12:11:52.047Z,101239.47
2024-02-19T12:13:15.597Z,101231.06
2024-02-19T12:14:39.467Z,101232.44
2024-02-19T12:16:03.582Z,101235.69
2024-02-19T12:17:28.155Z,101225.78
2024-02-19T12:18:53.196Z,101224.44
2024-02-19T12:20:16.119Z,101228.09
2024-02-19T12:21:38.147Z,101219.69
2024-02-19T12:23:01.575Z,101228.78
2024-02-19T12:24:26.046Z,101223.34
2024-02-19T12:25:50.420Z,101221.00
2024-02-19T12:27:12.888Z,101216.53
2024-02-19T12:28:35.183Z,101214.25
2024-02-19T12:29:58.458Z,101214.38
2024-02-19T12:31:21.994Z,101212.41
2024-02-19T12:32:48.065Z,101208.09
2024-02-19T12:34:10.743Z,101213.56
2024-02-19T12:35:34.156Z,101203.00
2024-02-19T12:36:56.594Z,101198.88
2024-02-19T12:38:18.604Z,101199.72
2024-02-19T12:39:51.086Z,101205.66
2024-02-19T12:41:19.281Z,101200.03
2024-02-19T12:42:43.337Z,101199.03
2024-02-19T12:44:05.945Z,101196.38
2024-02-19T12:45:28.844Z,101194.75
2024-02-19T12:46:52.805Z,101195.41
2024-02-19T12:48:16.635Z,101196.56
2024-02-19T12:49:40.814Z,101197.06
2024-02-19T12:51:08.301Z,101192.47
2024-02-19T12:52:31.739Z,101195.94
2024-02-19T12:53:56.541Z,101199.72
2024-02-19T12:55:19.890Z,101199.06
2024-02-19T12:56:44.190Z,101198.25
2024-02-19T12:58:07.109Z,101208.97
2024-02-19T12:59:31.020Z,101193.44
2024-02-19T13:00:54.505Z,101201.06
2024-02-19T13:02:18.439Z,101192.78
2024-02-19T13:03:42.416Z,101190.13
2024-02-19T13:05:07.857Z,101194.09
2024-02-19T13:06:30.450Z,101193.13
2024-02-19T13:07:56.335Z,101188.47
2024-02-19T13:09:20.620Z,101183.84
2024-02-19T13:10:46.215Z,101182.53
2024-02-19T13:12:11.377Z,101185.50
2024-02-19T13:13:34.770Z,101179.91
2024-02-19T13:15:04.224Z,101179.69
2024-02-19T13:16:58.427Z,101172.94
2024-02-19T13:18:42.168Z,101177.22
2024-02-19T13:22:42.776Z,101175.94
2024-02-19T13:24:19.681Z,101175.09
2024-02-19T13:25:46.224Z,101171.13
2024-02-19T13:27:17.412Z,101170.81
2024-02-19T13:28:39.545Z,101174.41
2024-02-19T13:30:03.272Z,101170.94
2024-02-19T13:31:38.373Z,101162.53
2024-02-19T13:33:09.507Z,101170.81
2024-02-19T13:34:35.265Z,101167.66
2024-02-19T13:36:06.733Z,101173.28
2024-02-19T13:37:30.535Z,101166.16
2024-02-19T13:38:54.379Z,101169.78
2024-02-19T13:40:19.197Z,101169.78
2024-02-19T13:41:44.354Z,101170.63
2024-02-19T13:43:06.974Z,101161.03
2024-02-19T13:44:31.547Z,101173.75
2024-02-19T13:46:01.686Z,101168.28
2024-02-19T13:47:25.084Z,101168.94
2024-02-19T13:49:02.422Z,101169.94
2024-02-19T13:50:25.765Z,101168.63
2024-02-19T13:51:48.685Z,101155.06
2024-02-19T13:53:16.990Z,101160.34
2024-02-19T13:54:40.554Z,101153.09
2024-02-19T13:56:05.574Z,101158.06
2024-02-19T13:57:27.078Z,101160.34
2024-02-19T13:58:50.837Z,101154.41
2024-02-19T14:00:14.316Z,101147.16
2024-02-19T14:01:40.363Z,101151.63
2024-02-19T14:03:04.959Z,101150.63
2024-02-19T14:04:27.605Z,101153.25
2024-02-19T14:05:51.878Z,101156.41
2024-02-19T14:07:16.435Z,101154.41
2024-02-19T14:08:41.417Z,101154.91
2024-02-19T14:10:07.220Z,101156.22
2024-02-19T14:11:41.277Z,101155.09
2024-02-19T14:13:04.985Z,101155.09
2024-02-19T14:14:28.317Z,101160.38
2024-02-19T14:15:50.109Z,101155.56
2024-02-19T14:17:14.801Z,101164.31
2024-02-19T14:18:38.322Z,101149.44
2024-02-19T14:20:02.132Z,101161.19
2024-02-19T14:21:49.138Z,101155.41
2024-02-19T14:23:13.851Z,101151.09
2024-02-19T14:24:43.013Z,101154.22
2024-02-19T14:26:25.674Z,101159.69
2024-02-19T14:27:51.015Z,101154.88
2024-02-19T14:29:20.783Z,101152.69
2024-02-19T14:30:44.220Z,101158.00
2024-02-19T14:32:22.086Z,101154.88
2024-02-19T14:33:46.900Z,101155.03
2024-02-19T14:35:12.548Z,101157.28
2024-02-19T14:36:40.793Z,101158.63
2024-02-19T14:38:18.980Z,101159.78
2024-02-19T14:39:49.767Z,101160.25
2024-02-19T14:41:17.651Z,101155.31
2024-02-19T14:42:41.547Z,101150.69
2024-02-19T14:44:07.409Z,101145.06
2024-02-19T14:45:33.479Z,101146.13
2024-02-19T14:47:02.315Z,101140.94
2024-02-19T14:48:29.332Z,101126.63
2024-02-19T14:49:52.655Z,101141.59
2024-02-19T14:51:23.390Z,101134.19
2024-02-19T14:52:47.536Z,101133.50
2024-02-19T14:54:12.640Z,101132.53
2024-02-19T14:55:36.562Z,101124.59
2024-02-19T14:57:01.975Z,101130.56
2024-02-19T14:58:30.446Z,101127.91
2024-02-19T15:00:05.139Z,101130.69
2024-02-19T15:01:39.900Z,101128.69
2024-02-19T15:03:03.030Z,101128.53
2024-02-19T15:04:57.170Z,101131.16
2024-02-19T15:06:20.215Z,101129.22
2024-02-19T15:07:46.639Z,101124.41
2024-02-19T15:09:25.025Z,101129.22
2024-02-19T15:10:54.500Z,101121.94
2024-02-19T15:12:19.926Z,101126.22
2024-02-19T15:14:08.918Z,101127.06
2024-02-19T15:15:47.221Z,101130.38
2024-02-19T15:17:18.976Z,101137.97
2024-02-19T15:18:42.081Z,101131.16
2024-02-19T15:20:05.359Z,101136.31
2024-02-19T15:21:28.167Z,101132.16
2024-02-19T15:23:15.053Z,101139.56
2024-02-19T15:24:39.780Z,101133.31
2024-02-19T15:26:24.162Z,101132.16
2024-02-19T15:27:56.352Z,101127.56
2024-02-19T15:29:21.997Z,101126.22
2024-02-19T15:31:04.648Z,101135.47
2024-02-19T15:32:28.575Z,101123.94
2024-02-19T15:34:36.888Z,101129.53
2024-02-19T15:38:05.902Z,101125.53
2024-02-19T15:39:26.318Z,101123.75
2024-02-19T15:40:53.725Z,101123.94
2024-02-19T15:42:18.970Z,101118.00
2024-02-19T15:43:43.028Z,101117.97
2024-02-19T15:45:14.937Z,101127.88
2024-02-19T15:46:41.518Z,101116.50
2024-02-19T15:48:02.320Z,101121.91
2024-02-19T15:49:26.430Z,101115.97
2024-02-19T15:50:55.534Z,101120.25
2024-02-19T15:52:19.662Z,101121.59
2024-02-19T15:53:47.789Z,101121.41
2024-02-19T15:55:22.954Z,101120.59
2024-02-19T15:56:46.690Z,101121.03
2024-02-19T15:58:10.316Z,101114.28
2024-02-19T15:59:32.563Z,101122.88
2024-02-19T16:00:55.219Z,101122.69
2024-02-19T16:02:20.073Z,101122.22
2024-02-19T16:03:43.611Z,101116.56
2024-02-19T16:05:08.429Z,101115.25
2024-02-19T16:06:33.298Z,101118.38
2024-02-19T16:07:59.341Z,101123.50
2024-02-19T16:09:24.339Z,101118.88
2024-02-19T16:11:10.806Z,101119.50
2024-02-19T16:12:37.766Z,101120.97
2024-02-19T16:14:01.753Z,101121.38
2024-02-19T16:15:28.185Z,101119.22
2024-02-19T16:17:06.768Z,101121.13
2024-02-19T16:18:27.835Z,101120.31
2024-02-19T16:19:55.186Z,101116.03
2024-02-19T16:21:18.278Z,101128.72
2024-02-19T16:22:58.968Z,101124.78
2024-02-19T16:24:29.992Z,101126.59
2024-02-19T16:27:58.741Z,101122.13
2024-02-19T16:29:28.246Z,101120.59
2024-02-19T16:30:56.995Z,101127.34
2024-02-19T16:32:23.006Z,101118.63
2024-02-19T16:34:48.992Z,101107.94
2024-02-19T16:36:26.353Z,101113.19
2024-02-19T16:37:50.278Z,101110.88
2024-02-19T16:39:13.589Z,101114.34
2024-02-19T16:40:39.396Z,101120.72
2024-02-19T16:42:06.372Z,101114.09
2024-02-19T16:43:29.006Z,101119.88
2024-02-19T16:44:50.889Z,101125.91
2024-02-19T16:46:14.791Z,101122.06
2024-02-19T16:47:37.705Z,101124.03
2024-02-19T16:48:59.971Z,101118.44
2024-02-19T16:50:23.668Z,101117.28
2024-02-19T16:51:46.036Z,101123.09
2024-02-19T16:53:09.063Z,101119.09
2024-02-19T16:54:31.626Z,101116.31
2024-02-19T16:55:54.442Z,101115.00
2024-02-19T16:57:16.926Z,101116.00
2024-02-19T16:58:38.692Z,101125.22
2024-02-19T17:00:00.845Z,101118.44
2024-02-19T17:01:23.723Z,101118.28
2024-02-19T17:02:46.544Z,101121.53
2024-02-19T17:04:10.098Z,101116.66
2024-02-19T17:05:33.859Z,101116.56
2024-02-19T17:06:56.736Z,101124.34
2024-02-19T17:08:19.394Z,101122.66
2024-02-19T17:09:43.792Z,101125.28
2024-02-19T17:11:06.013Z,101119.06
2024-02-19T17:12:31.913Z,101121.84
2024-02-19T17:13:55.210Z,101121.53
2024-02-19T17:15:17.480Z,101129.91
2024-02-19T17:16:40.056Z,101130.72
2024-02-19T17:18:04.241Z,101125.97
2024-02-19T17:19:28.516Z,101131.34
2024-02-19T17:20:51.012Z,101123.72
2024-02-19T17:22:15.115Z,101129.00
2024-02-19T17:23:38.309Z,101123.28
2024-02-19T17:25:00.812Z,101122.28
2024-02-19T17:26:23.811Z,101123.44
2024-02-19T17:27:46.829Z,101124.41
2024-02-19T17:29:09.853Z,101118.41
2024-02-19T17:30:31.846Z,101125.50
2024-02-19T17:31:54.383Z,101126.75
2024-02-19T17:33:17.169Z,101126.56
2024-02-19T17:34:44.199Z,101131.56
2024-02-19T17:36:06.990Z,101132.66
2024-02-19T17:37:31.032Z,101132.88
2024-02-19T17:38:54.378Z,101134.91
2024-02-19T17:40:16.924Z,101137.31
2024-02-19T17:41:38.396Z,101136.69
2024-02-19T17:43:01.277Z,101138.72
2024-02-19T17:44:26.176Z,101140.00
2024-02-19T17:45:49.790Z,101144.44
2024-02-19T17:47:10.776Z,101137.97
2024-02-19T17:48:31.576Z,101147.03